Time;durP1;ratioP1;P1;durP2;ratioP2;P2;SDS_P1;SDS_P2;PMS_P1;PMS_P2;Temp;Humidity;BMP_temperature;BMP_pressure;BME280_temperature;BME280_humidity;BME280_pressure;Samples;Min_cycle;Max_cycle;Signal;HPM_P1;HPM_P2
2019/11/24 00:00:29;;;;;;;9.2;7.9;;;;;;;;;;;;;
2019/11/24 00:02:54;;;;;;;9.3;6.6;;;;;;;;;;;;;
2019/11/24 00:05:19;;;;;;;7.1;6;;;;;;;;;;;;;
2019/11/24 00:07:44;;;;;;;7.6;6;;;;;;;;;;;;;
2019/11/24 00:10:09;;;;;;;7.7;6.2;;;;;;;;;;;;;
2019/11/24 00:12:34;;;;;;;6.4;5.7;;;;;;;;;;;;;
2019/11/24 00:14:59;;;;;;;8.9;6.5;;;;;;;;;;;;;
2019/11/24 00:17:25;;;;;;;7.6;6.7;;;;;;;;;;;;;
2019/11/24 00:19:50;;;;;;;7.8;7;;;;;;;;;;;;;
2019/11/24 00:22:15;;;;;;;9.4;7;;;;;;;;;;;;;
2019/11/24 00:25:23;;;;;;;8.6;7.2;;;;;;;;;;;;;
2019/11/24 00:29:31;;;;;;;7.7;6.5;;;;;;;;;;;;;
2019/11/24 00:31:56;;;;;;;7.2;6.3;;;;;;;;;;;;;
2019/11/24 00:34:21;;;;;;;8.2;6.7;;;;;;;;;;;;;
2019/11/24 00:36:46;;;;;;;9.3;6.9;;;;;;;;;;;;;
2019/11/24 00:39:11;;;;;;;7.6;6.1;;;;;;;;;;;;;
2019/11/24 00:41:36;;;;;;;8.8;6.4;;;;;;;;;;;;;
2019/11/24 00:44:01;;;;;;;8.1;6.9;;;;;;;;;;;;;
2019/11/24 00:46:26;;;;;;;9.1;6.8;;;;;;;;;;;;;
2019/11/24 00:48:51;;;;;;;7.9;6.7;;;;;;;;;;;;;
2019/11/24 00:51:16;;;;;;;8.5;7.1;;;;;;;;;;;;;
2019/11/24 00:53:41;;;;;;;7.8;6.4;;;;;;;;;;;;;
2019/11/24 00:56:06;;;;;;;8.4;7;;;;;;;;;;;;;
2019/11/24 00:58:31;;;;;;;9.4;7.4;;;;;;;;;;;;;
2019/11/24 01:00:57;;;;;;;9.8;7.1;;;;;;;;;;;;;
2019/11/24 01:03:22;;;;;;;9;6.8;;;;;;;;;;;;;
2019/11/24 01:05:47;;;;;;;9.8;7.3;;;;;;;;;;;;;
2019/11/24 01:08:12;;;;;;;11.3;7.3;;;;;;;;;;;;;
2019/11/24 01:10:37;;;;;;;8.5;7.4;;;;;;;;;;;;;
2019/11/24 01:13:02;;;;;;;8.4;7.2;;;;;;;;;;;;;
2019/11/24 01:15:27;;;;;;;7.8;7;;;;;;;;;;;;;
2019/11/24 01:17:52;;;;;;;8.4;6.6;;;;;;;;;;;;;
2019/11/24 01:20:17;;;;;;;8.5;6.9;;;;;;;;;;;;;
2019/11/24 01:22:42;;;;;;;8.3;7.3;;;;;;;;;;;;;
2019/11/24 01:25:07;;;;;;;8.9;7.2;;;;;;;;;;;;;
2019/11/24 01:27:33;;;;;;;8.6;7.4;;;;;;;;;;;;;
2019/11/24 01:29:58;;;;;;;9.8;7.7;;;;;;;;;;;;;
2019/11/24 01:32:25;;;;;;;8.5;7.3;;;;;;;;;;;;;
2019/11/24 01:34:50;;;;;;;9.3;7.5;;;;;;;;;;;;;
2019/11/24 01:37:13;;;;;;;7.9;7;;;;;;;;;;;;;
2019/11/24 01:39:50;;;;;;;9.3;7.3;;;;;;;;;;;;;
2019/11/24 01:42:23;;;;;;;7.8;6.9;;;;;;;;;;;;;
2019/11/24 01:44:29;;;;;;;8;7.2;;;;;;;;;;;;;
2019/11/24 01:46:54;;;;;;;7.9;6.8;;;;;;;;;;;;;
2019/11/24 01:49:19;;;;;;;8.9;7.3;;;;;;;;;;;;;
2019/11/24 01:51:44;;;;;;;7.6;6.8;;;;;;;;;;;;;
2019/11/24 01:54:09;;;;;;;7.4;6.6;;;;;;;;;;;;;
2019/11/24 01:56:34;;;;;;;7.8;6.5;;;;;;;;;;;;;
2019/11/24 01:58:59;;;;;;;7.3;6.5;;;;;;;;;;;;;
2019/11/24 02:01:24;;;;;;;8.2;6.7;;;;;;;;;;;;;
2019/11/24 02:03:49;;;;;;;8.1;6.3;;;;;;;;;;;;;
2019/11/24 02:06:14;;;;;;;7.6;6.4;;;;;;;;;;;;;
2019/11/24 02:08:39;;;;;;;8.4;6.4;;;;;;;;;;;;;
2019/11/24 02:11:05;;;;;;;7.8;6.1;;;;;;;;;;;;;
2019/11/24 02:13:30;;;;;;;6.8;6;;;;;;;;;;;;;
2019/11/24 02:15:55;;;;;;;7.1;6;;;;;;;;;;;;;
2019/11/24 02:18:20;;;;;;;7.6;6;;;;;;;;;;;;;
2019/11/24 02:20:45;;;;;;;7.1;5.8;;;;;;;;;;;;;
2019/11/24 02:23:10;;;;;;;6.1;5.2;;;;;;;;;;;;;
2019/11/24 02:25:35;;;;;;;6.1;5.5;;;;;;;;;;;;;
2019/11/24 02:28:00;;;;;;;7.6;5.7;;;;;;;;;;;;;
2019/11/24 02:30:26;;;;;;;6.3;5.7;;;;;;;;;;;;;
2019/11/24 02:32:51;;;;;;;6.5;5.7;;;;;;;;;;;;;
2019/11/24 02:35:16;;;;;;;6.1;5.5;;;;;;;;;;;;;
2019/11/24 02:37:41;;;;;;;6.3;5.3;;;;;;;;;;;;;
2019/11/24 02:40:06;;;;;;;5.9;5.3;;;;;;;;;;;;;
2019/11/24 02:42:31;;;;;;;6;5.3;;;;;;;;;;;;;
2019/11/24 02:44:56;;;;;;;6.2;5.6;;;;;;;;;;;;;
2019/11/24 02:47:21;;;;;;;6.5;5.8;;;;;;;;;;;;;
2019/11/24 02:49:46;;;;;;;6.6;5.6;;;;;;;;;;;;;
2019/11/24 02:52:11;;;;;;;7.3;5.6;;;;;;;;;;;;;
2019/11/24 02:54:37;;;;;;;7.3;5.8;;;;;;;;;;;;;
2019/11/24 02:57:02;;;;;;;7.6;5.7;;;;;;;;;;;;;
2019/11/24 02:59:27;;;;;;;6.3;5.7;;;;;;;;;;;;;
2019/11/24 03:01:52;;;;;;;7.1;6.4;;;;;;;;;;;;;
2019/11/24 03:04:17;;;;;;;7;6.1;;;;;;;;;;;;;
2019/11/24 03:09:07;;;;;;;6.9;6.2;;;;;;;;;;;;;
2019/11/24 03:14:02;;;;;;;9.3;6.5;;;;;;;;;;;;;
2019/11/24 03:16:23;;;;;;;7.1;5.8;;;;;;;;;;;;;
2019/11/24 03:18:48;;;;;;;7.7;6;;;;;;;;;;;;;
2019/11/24 03:21:13;;;;;;;7.4;6.3;;;;;;;;;;;;;
2019/11/24 03:23:38;;;;;;;7;6.3;;;;;;;;;;;;;
2019/11/24 03:26:03;;;;;;;7.2;6.2;;;;;;;;;;;;;
2019/11/24 03:28:28;;;;;;;7.2;6;;;;;;;;;;;;;
2019/11/24 03:30:53;;;;;;;6.7;6;;;;;;;;;;;;;
2019/11/24 03:33:18;;;;;;;6.7;5.8;;;;;;;;;;;;;
2019/11/24 03:35:43;;;;;;;6.9;6.2;;;;;;;;;;;;;
2019/11/24 03:38:08;;;;;;;6.7;6;;;;;;;;;;;;;
2019/11/24 03:40:33;;;;;;;7.4;6.2;;;;;;;;;;;;;
2019/11/24 03:42:59;;;;;;;7.1;5.9;;;;;;;;;;;;;
2019/11/24 03:45:24;;;;;;;7.5;6.3;;;;;;;;;;;;;
2019/11/24 03:47:49;;;;;;;8.5;6.3;;;;;;;;;;;;;
2019/11/24 03:50:14;;;;;;;8.4;6.5;;;;;;;;;;;;;
2019/11/24 03:52:39;;;;;;;7.7;6.4;;;;;;;;;;;;;
2019/11/24 03:55:04;;;;;;;7.9;6.3;;;;;;;;;;;;;
2019/11/24 03:57:29;;;;;;;7.1;6.3;;;;;;;;;;;;;
2019/11/24 03:59:54;;;;;;;8.2;6.1;;;;;;;;;;;;;
2019/11/24 04:02:28;;;;;;;6.8;5.9;;;;;;;6.15;94.45898;946.4631;;;;
2019/11/24 04:04:53;;;;;;;7.1;5.9;;;;;;;6.26;93.36621;946.4835;;;;
2019/11/24 04:07:18;;;;;;;6.6;6;;;;;;;6.25;93.89746;946.4483;;;;
2019/11/24 04:09:43;;;;;;;7.1;5.7;;;;;;;6.25;94.07227;946.4009;;;;
2019/11/24 04:12:09;;;;;;;7.3;6;;;;;;;6.12;94.23633;946.4425;;;;
2019/11/24 04:14:34;;;;;;;6.4;5.8;;;;;;;6.11;94.40332;946.5137;;;;
2019/11/24 04:16:59;;;;;;;6.2;5.4;;;;;;;6.17;94.19141;946.5703;;;;
2019/11/24 04:19:24;;;;;;;6;5.4;;;;;;;6.19;94.06836;946.5812;;;;
2019/11/24 04:21:49;;;;;;;6.8;5.4;;;;;;;6.23;93.81641;946.6594;;;;
2019/11/24 04:24:14;;;;;;;5.5;5;;;;;;;6.2;93.7627;946.6839;;;;
2019/11/24 04:26:39;;;;;;;6.5;5.6;;;;;;;6.02;94.89648;946.6021;;;;
2019/11/24 04:29:04;;;;;;;6.3;5.4;;;;;;;5.96;95.01855;946.6958;;;;
2019/11/24 04:31:29;;;;;;;6.4;5.2;;;;;;;6.08;94.36328;946.7671;;;;
2019/11/24 04:33:54;;;;;;;6.1;4.7;;;;;;;6.25;93.3623;946.843;;;;
2019/11/24 04:36:19;;;;;;;5.9;5.1;;;;;;;6.26;93.14941;946.7957;;;;
2019/11/24 04:38:45;;;;;;;6;5.4;;;;;;;6.14;93.7168;946.7559;;;;
2019/11/24 04:41:10;;;;;;;6.6;5;;;;;;;5.96;94.64551;946.8413;;;;
2019/11/24 04:43:35;;;;;;;6.5;5.2;;;;;;;5.91;94.96191;946.8756;;;;
2019/11/24 04:46:00;;;;;;;6;5.2;;;;;;;5.96;94.56348;946.872;;;;
2019/11/24 04:48:25;;;;;;;5.7;5.1;;;;;;;5.96;94.37207;946.8527;;;;
2019/11/24 04:50:50;;;;;;;6.5;5.1;;;;;;;6.02;93.91895;946.8633;;;;
2019/11/24 04:53:29;;;;;;;5.7;5.1;;;;;;;6.05;93.90234;946.9341;;;;
2019/11/24 04:55:59;;;;;;;6.1;5.2;;;;;;;5.86;95.13574;947.0137;;;;
2019/11/24 04:58:24;;;;;;;6.7;5.8;;;;;;;5.81;95.46289;946.9396;;;;
2019/11/24 05:00:49;;;;;;;6.6;5.4;;;;;;;5.86;95.15625;947.0097;;;;
2019/11/24 05:03:14;;;;;;;6.1;5.5;;;;;;;5.86;94.94043;947.0089;;;;
2019/11/24 05:05:39;;;;;;;6.6;5.7;;;;;;;5.92;94.93164;946.9403;;;;
2019/11/24 05:08:04;;;;;;;6.7;5.6;;;;;;;5.95;94.39063;946.8999;;;;
2019/11/24 05:10:29;;;;;;;6.6;5.2;;;;;;;5.96;94.55176;946.9327;;;;
2019/11/24 05:12:54;;;;;;;6.8;5.6;;;;;;;5.79;95.06055;946.9763;;;;
2019/11/24 05:15:19;;;;;;;7.4;5.4;;;;;;;5.96;94.4043;947.0499;;;;
2019/11/24 05:17:44;;;;;;;6.6;5.7;;;;;;;5.86;94.93066;947.0003;;;;
2019/11/24 05:20:09;;;;;;;7.4;5.9;;;;;;;5.68;95.92676;946.9947;;;;
2019/11/24 05:22:34;;;;;;;7.7;5.9;;;;;;;5.62;96.09277;946.9726;;;;
2019/11/24 05:24:59;;;;;;;6.6;5.9;;;;;;;5.74;95.42676;946.9681;;;;
2019/11/24 05:27:24;;;;;;;6.3;5.7;;;;;;;5.71;95.85254;947.0064;;;;
2019/11/24 05:29:50;;;;;;;6.4;5.7;;;;;;;5.59;96.16797;946.9966;;;;
2019/11/24 05:32:15;;;;;;;8.7;6.2;;;;;;;5.63;96.1875;947.0126;;;;
2019/11/24 05:34:40;;;;;;;7.5;6.2;;;;;;;5.63;96.56348;946.9916;;;;
2019/11/24 05:37:05;;;;;;;9;6.5;;;;;;;5.62;96.77734;946.9426;;;;
2019/11/24 05:39:30;;;;;;;8.4;7;;;;;;;5.47;97.76855;946.9727;;;;
2019/11/24 05:41:55;;;;;;;7.3;6.5;;;;;;;5.52;97.35742;947.0372;;;;
2019/11/24 05:44:20;;;;;;;8.7;6.5;;;;;;;5.69;96.31348;947.0677;;;;
2019/11/24 05:46:45;;;;;;;8.8;6.8;;;;;;;5.55;96.70605;947.0475;;;;
2019/11/24 05:49:10;;;;;;;8.4;6.6;;;;;;;5.52;96.58203;947.1325;;;;
2019/11/24 05:51:35;;;;;;;8.1;6.3;;;;;;;5.52;96.47949;947.1454;;;;
2019/11/24 05:54:01;;;;;;;8.3;6.9;;;;;;;5.47;96.62891;947.1234;;;;
2019/11/24 05:56:26;;;;;;;7;6.3;;;;;;;5.57;96.09375;947.1311;;;;
2019/11/24 05:58:51;;;;;;;8.2;6.7;;;;;;;5.65;95.73633;947.2018;;;;
2019/11/24 06:01:16;;;;;;;7.2;6.4;;;;;;;5.57;95.7959;947.2523;;;;
2019/11/24 06:03:41;;;;;;;7.8;6.6;;;;;;;5.34;97.32813;947.3206;;;;
2019/11/24 06:06:06;;;;;;;7.7;6.7;;;;;;;5.37;97.60742;947.3099;;;;
2019/11/24 06:08:31;;;;;;;7.9;6.4;;;;;;;5.75;95.99707;947.3759;;;;
2019/11/24 06:10:56;;;;;;;8.5;7.1;;;;;;;5.58;96.16602;947.5045;;;;
2019/11/24 06:13:21;;;;;;;8.1;7;;;;;;;5.56;96.60352;947.5089;;;;
2019/11/24 06:15:46;;;;;;;7.7;6.7;;;;;;;5.52;96.20703;947.4459;;;;
2019/11/24 06:18:11;;;;;;;8;6.6;;;;;;;5.53;96.01563;947.4744;;;;
2019/11/24 06:20:37;;;;;;;8.4;6.7;;;;;;;5.64;95.18652;947.5176;;;;
2019/11/24 06:23:02;;;;;;;7.5;6.7;;;;;;;5.45;95.71484;947.6031;;;;
2019/11/24 06:25:31;;;;;;;7.3;6.2;;;;;;;5.4;95.97559;947.6392;;;;
2019/11/24 06:27:56;;;;;;;6.9;6.2;;;;;;;5.19;97.06641;947.5536;;;;
2019/11/24 06:30:21;;;;;;;7.6;6.6;;;;;;;5.26;97.24121;947.5181;;;;
2019/11/24 06:32:46;;;;;;;9;6.6;;;;;;;5.23;97.25391;947.6503;;;;
2019/11/24 06:35:11;;;;;;;7.9;6.4;;;;;;;5.14;97.51953;947.714;;;;
2019/11/24 06:37:37;;;;;;;7;6.3;;;;;;;5.52;95.67188;947.807;;;;
2019/11/24 06:40:02;;;;;;;6.6;6;;;;;;;5.43;95.9248;947.8959;;;;
2019/11/24 06:42:27;;;;;;;7.3;6.6;;;;;;;5.27;96.82324;947.9373;;;;
2019/11/24 06:44:52;;;;;;;7;6.3;;;;;;;5.26;96.77344;948.0789;;;;
2019/11/24 06:47:17;;;;;;;6.9;6.3;;;;;;;5.26;96.93457;948.1226;;;;
2019/11/24 06:49:42;;;;;;;7.4;6.6;;;;;;;5.49;95.34766;948.015;;;;
2019/11/24 06:52:07;;;;;;;7.4;6.5;;;;;;;5.26;96.22949;948.1694;;;;
2019/11/24 06:54:32;;;;;;;9.1;6.7;;;;;;;5.28;96.43652;948.1892;;;;
2019/11/24 06:56:57;;;;;;;7.5;6.8;;;;;;;5.29;96.45215;948.187;;;;
2019/11/24 06:59:22;;;;;;;6.8;6.1;;;;;;;5.47;95.68652;948.1699;;;;
2019/11/24 07:01:47;;;;;;;7.7;6.9;;;;;;;5.33;96.40527;948.2098;;;;
2019/11/24 07:04:12;;;;;;;7.6;6.8;;;;;;;5.19;97.04102;948.1437;;;;
2019/11/24 07:06:37;;;;;;;7.7;6.9;;;;;;;5.35;96.49805;948.1212;;;;
2019/11/24 07:09:02;;;;;;;8;7.2;;;;;;;5.23;97.2334;948.2043;;;;
2019/11/24 07:11:27;;;;;;;7.8;7;;;;;;;5.26;97.08008;948.2211;;;;
2019/11/24 07:13:52;;;;;;;7.9;7.1;;;;;;;5.42;96.08398;948.3191;;;;
2019/11/24 07:16:17;;;;;;;7.2;6.5;;;;;;;5.49;95.73438;948.3535;;;;
2019/11/24 07:18:43;;;;;;;7.3;6.5;;;;;;;5.47;95.79688;948.432;;;;
2019/11/24 07:21:08;;;;;;;7.7;6.9;;;;;;;5.65;94.4502;948.4741;;;;
2019/11/24 07:23:33;;;;;;;7.8;7;;;;;;;5.42;95.92285;948.4934;;;;
2019/11/24 07:25:58;;;;;;;8.4;7.5;;;;;;;5.45;95.41895;948.5927;;;;
2019/11/24 07:29:44;;;;;;;8.6;7.8;;;;;;;5.37;96.0498;948.5876;;;;
2019/11/24 07:30:55;;;;;;;11.7;8;;;;;;;5.33;96.31445;948.5717;;;;
2019/11/24 07:33:17;;;;;;;10.4;8.3;;;;;;;5.3;96.48828;948.7026;;;;
2019/11/24 07:35:38;;;;;;;10;8.1;;;;;;;5.48;95.3457;948.7153;;;;
2019/11/24 07:38:03;;;;;;;8.7;7.8;;;;;;;5.46;95.35352;948.823;;;;
2019/11/24 07:40:28;;;;;;;9;7.9;;;;;;;5.64;94.72168;948.8695;;;;
2019/11/24 07:42:53;;;;;;;8.9;8;;;;;;;5.57;94.41211;948.8851;;;;
2019/11/24 07:45:18;;;;;;;9.5;8.4;;;;;;;5.43;95.30176;948.9315;;;;
2019/11/24 07:47:44;;;;;;;8.5;7.7;;;;;;;5.58;94.66406;948.8756;;;;
2019/11/24 07:50:09;;;;;;;9;8.1;;;;;;;5.62;94.19434;948.8658;;;;
2019/11/24 07:52:34;;;;;;;8.6;7.7;;;;;;;5.52;94.86426;948.8177;;;;
2019/11/24 07:54:59;;;;;;;9.7;8.2;;;;;;;5.76;93.87305;948.9099;;;;
2019/11/24 07:57:24;;;;;;;10;9;;;;;;;5.85;92.87793;948.8728;;;;
2019/11/24 07:59:49;;;;;;;9.4;8.5;;;;;;;5.82;93.12207;948.8293;;;;
2019/11/24 08:02:14;;;;;;;9.9;8.9;;;;;;;5.54;94.94824;948.9047;;;;
2019/11/24 08:04:39;;;;;;;9.4;8.5;;;;;;;5.67;94.34277;949.0334;;;;
2019/11/24 08:07:05;;;;;;;9;8.1;;;;;;;5.67;94.34082;949.1037;;;;
2019/11/24 08:09:30;;;;;;;9.1;8.2;;;;;;;5.7;94.10938;949.0438;;;;
2019/11/24 08:11:55;;;;;;;9.2;8.3;;;;;;;5.6;94.77051;949.0652;;;;
2019/11/24 08:14:21;;;;;;;9;8.1;;;;;;;5.5;95.46387;949.1316;;;;
2019/11/24 08:16:46;;;;;;;9;8.1;;;;;;;5.57;95.52539;949.1373;;;;
2019/11/24 08:19:11;;;;;;;9.1;8;;;;;;;5.99;93.23926;949.0231;;;;
2019/11/24 08:21:36;;;;;;;9.7;8.1;;;;;;;5.83;94.19629;949.1895;;;;
2019/11/24 08:24:01;;;;;;;9;8.1;;;;;;;5.67;95.61523;949.1658;;;;
2019/11/24 08:26:27;;;;;;;9.6;8.6;;;;;;;5.68;94.84375;949.1926;;;;
2019/11/24 08:28:51;;;;;;;10.2;9.1;;;;;;;5.64;95.10645;949.2194;;;;
2019/11/24 08:31:17;;;;;;;9.8;8.8;;;;;;;5.6;95.18945;949.3253;;;;
2019/11/24 08:33:42;;;;;;;10.1;8.6;;;;;;;5.54;95.6084;949.3822;;;;
2019/11/24 08:36:07;;;;;;;9.2;8.3;;;;;;;5.6;95.61035;949.4942;;;;
2019/11/24 08:38:32;;;;;;;8.2;7.4;;;;;;;5.82;95.0918;949.3654;;;;
2019/11/24 08:40:57;;;;;;;8.8;7.9;;;;;;;5.97;94.33789;949.3516;;;;
2019/11/24 08:43:22;;;;;;;9;8.1;;;;;;;6;93.11621;949.2642;;;;
2019/11/24 08:45:47;;;;;;;9.4;8.4;;;;;;;5.8;95.14258;949.3098;;;;
2019/11/24 08:48:13;;;;;;;8.5;7.6;;;;;;;5.94;93.88965;949.2969;;;;
2019/11/24 08:50:38;;;;;;;9.4;7.8;;;;;;;6.03;93.62305;949.2509;;;;
2019/11/24 08:53:03;;;;;;;9;8.1;;;;;;;6.16;93.28809;949.2695;;;;
2019/11/24 08:55:28;;;;;;;10.1;8;;;;;;;6.19;93.44141;949.3133;;;;
2019/11/24 08:57:53;;;;;;;10.2;8.7;;;;;;;6.06;93.60742;949.2969;;;;
2019/11/24 09:00:19;;;;;;;10.4;8.6;;;;;;;6.07;94.06543;949.326;;;;
2019/11/24 09:02:44;;;;;;;10.5;8.7;;;;;;;6.21;93.91211;949.4153;;;;
2019/11/24 09:05:09;;;;;;;9.9;8.3;;;;;;;6.32;93.37988;949.4717;;;;
2019/11/24 09:07:34;;;;;;;9.3;8.4;;;;;;;6.36;93.63867;949.4683;;;;
2019/11/24 09:09:59;;;;;;;9.3;8.1;;;;;;;6.39;92.99609;949.447;;;;
2019/11/24 09:12:25;;;;;;;9.3;8.4;;;;;;;6.43;92.14941;949.4978;;;;
2019/11/24 09:14:50;;;;;;;9.5;8.5;;;;;;;6.21;92.85352;949.616;;;;
2019/11/24 09:17:15;;;;;;;10.7;8.6;;;;;;;6.13;93.99902;949.7157;;;;
2019/11/24 09:19:40;;;;;;;10;8.7;;;;;;;6.42;93.51563;949.7121;;;;
2019/11/24 09:22:05;;;;;;;10;8;;;;;;;6.7;92.10645;949.7061;;;;
2019/11/24 09:24:31;;;;;;;9.5;8.5;;;;;;;6.75;91.52246;949.7675;;;;
2019/11/24 09:26:56;;;;;;;9.4;8.4;;;;;;;6.7;91.59277;949.6907;;;;
2019/11/24 09:29:22;;;;;;;10.4;8.6;;;;;;;6.76;91.6709;949.74;;;;
2019/11/24 09:31:47;;;;;;;10;8.9;;;;;;;6.8;92.18457;949.8113;;;;
2019/11/24 09:34:12;;;;;;;10.3;9.1;;;;;;;6.74;92.42188;949.7609;;;;
2019/11/24 09:36:37;;;;;;;10;9;;;;;;;7.02;90.81543;949.8684;;;;
2019/11/24 09:39:02;;;;;;;9.9;8.7;;;;;;;7.09;90.78516;949.954;;;;
2019/11/24 09:41:27;;;;;;;9.7;8.7;;;;;;;7.3;90.44043;949.9177;;;;
2019/11/24 09:43:52;;;;;;;10;8.9;;;;;;;7.45;89.44434;949.9249;;;;
2019/11/24 09:46:17;;;;;;;10.7;8.8;;;;;;;7.55;88.93848;949.906;;;;
2019/11/24 09:48:43;;;;;;;10.2;8.9;;;;;;;7.66;87.86328;949.9312;;;;
2019/11/24 09:51:08;;;;;;;9.7;8.3;;;;;;;;;;;;;
2019/11/24 09:53:33;;;;;;;11.1;8.9;;;;;;;;;;;;;
2019/11/24 09:55:58;;;;;;;11.6;9.5;;;;;;;;;;;;;
2019/11/24 09:58:23;;;;;;;10.4;8.7;;;;;;;;;;;;;
2019/11/24 10:00:49;;;;;;;9.5;8.4;;;;;;;;;;;;;
2019/11/24 10:03:14;;;;;;;9.9;8.5;;;;;;;;;;;;;
2019/11/24 10:05:39;;;;;;;11;8.7;;;;;;;;;;;;;
2019/11/24 10:08:04;;;;;;;9.4;8.4;;;;;;;;;;;;;
2019/11/24 10:12:56;;;;;;;9.7;8.7;;;;;;;;;;;;;
2019/11/24 10:15:19;;;;;;;9.7;8.7;;;;;;;;;;;;;
2019/11/24 10:17:44;;;;;;;9.5;8.4;;;;;;;;;;;;;
2019/11/24 10:20:09;;;;;;;10.9;9.7;;;;;;;;;;;;;
2019/11/24 10:22:34;;;;;;;9.3;8.3;;;;;;;;;;;;;
2019/11/24 10:25:00;;;;;;;12;8.8;;;;;;;;;;;;;
2019/11/24 10:27:25;;;;;;;9;8.1;;;;;;;;;;;;;
2019/11/24 10:29:50;;;;;;;10.8;8.8;;;;;;;;;;;;;
2019/11/24 10:32:15;;;;;;;9.8;8.7;;;;;;;;;;;;;
2019/11/24 10:34:40;;;;;;;9;8.1;;;;;;;;;;;;;
2019/11/24 10:37:06;;;;;;;10.3;9.2;;;;;;;;;;;;;
2019/11/24 10:39:31;;;;;;;10.7;9.5;;;;;;;;;;;;;
2019/11/24 10:41:56;;;;;;;9.7;8.3;;;;;;;;;;;;;
2019/11/24 10:44:21;;;;;;;11.8;9;;;;;;;;;;;;;
2019/11/24 10:46:46;;;;;;;8.9;8;;;;;;;;;;;;;
2019/11/24 10:49:11;;;;;;;9.9;8;;;;;;;;;;;;;
2019/11/24 10:51:36;;;;;;;9.3;7.5;;;;;;;;;;;;;
2019/11/24 10:54:01;;;;;;;8.3;7.3;;;;;;;;;;;;;
2019/11/24 10:56:26;;;;;;;8.3;7.1;;;;;;;;;;;;;
2019/11/24 10:58:52;;;;;;;8.4;7.3;;;;;;;;;;;;;
2019/11/24 11:01:17;;;;;;;9.2;8.1;;;;;;;;;;;;;
2019/11/24 11:03:42;;;;;;;8.6;7.7;;;;;;;;;;;;;
2019/11/24 11:06:07;;;;;;;10.8;7.7;;;;;;;;;;;;;
2019/11/24 11:08:32;;;;;;;9.5;7.5;;;;;;;;;;;;;
2019/11/24 11:10:57;;;;;;;8.3;7.3;;;;;;;;;;;;;
2019/11/24 11:13:22;;;;;;;9.3;7.9;;;;;;;;;;;;;
2019/11/24 11:15:47;;;;;;;8.8;7.9;;;;;;;;;;;;;
2019/11/24 11:18:12;;;;;;;9.4;7.4;;;;;;;;;;;;;
2019/11/24 11:20:37;;;;;;;13;10;;;;;;;;;;;;;
2019/11/24 11:23:03;;;;;;;16.8;11.5;;;;;;;;;;;;;
2019/11/24 11:25:28;;;;;;;8.3;7;;;;;;;;;;;;;
2019/11/24 11:27:53;;;;;;;8.4;7;;;;;;;;;;;;;
2019/11/24 11:30:18;;;;;;;9.5;6.7;;;;;;;;;;;;;
2019/11/24 11:32:43;;;;;;;8.6;6.9;;;;;;;;;;;;;
2019/11/24 11:35:08;;;;;;;9.5;7.7;;;;;;;;;;;;;
2019/11/24 11:37:43;;;;;;;11.1;8.6;;;;;;;;;;;;;
2019/11/24 11:39:58;;;;;;;8.9;7.7;;;;;;;;;;;;;
2019/11/24 11:42:23;;;;;;;9.8;7.9;;;;;;;;;;;;;
2019/11/24 11:44:48;;;;;;;9.8;8.4;;;;;;;;;;;;;
2019/11/24 11:47:13;;;;;;;9.4;8.1;;;;;;;;;;;;;
2019/11/24 11:49:38;;;;;;;8;7;;;;;;;;;;;;;
2019/11/24 11:52:03;;;;;;;8.4;6.9;;;;;;;;;;;;;
2019/11/24 11:54:28;;;;;;;8;7.2;;;;;;;;;;;;;
2019/11/24 11:56:53;;;;;;;9.3;8.1;;;;;;;;;;;;;
2019/11/24 11:59:18;;;;;;;9.6;7.6;;;;;;;;;;;;;
2019/11/24 12:01:44;;;;;;;8.6;7.4;;;;;;;;;;;;;
2019/11/24 12:04:09;;;;;;;10.6;8.4;;;;;;;;;;;;;
2019/11/24 12:06:34;;;;;;;11.6;8.6;;;;;;;;;;;;;
2019/11/24 12:08:59;;;;;;;11.7;9.6;;;;;;;;;;;;;
2019/11/24 12:11:24;;;;;;;11.2;9.5;;;;;;;;;;;;;
2019/11/24 12:13:49;;;;;;;10.4;9.3;;;;;;;;;;;;;
2019/11/24 12:16:14;;;;;;;13.3;10.1;;;;;;;;;;;;;
2019/11/24 12:18:39;;;;;;;12.9;9.8;;;;;;;;;;;;;
2019/11/24 12:21:04;;;;;;;11.4;10.2;;;;;;;;;;;;;
2019/11/24 12:23:29;;;;;;;12.3;10;;;;;;;;;;;;;
2019/11/24 12:25:54;;;;;;;11.3;10.1;;;;;;;;;;;;;
2019/11/24 12:28:20;;;;;;;12.2;10.5;;;;;;;;;;;;;
2019/11/24 12:30:45;;;;;;;12.4;11.1;;;;;;;;;;;;;
2019/11/24 12:33:10;;;;;;;13.8;11;;;;;;;;;;;;;
2019/11/24 12:35:35;;;;;;;12.9;11.1;;;;;;;;;;;;;
2019/11/24 12:38:00;;;;;;;13.3;11.1;;;;;;;;;;;;;
2019/11/24 12:40:25;;;;;;;11.8;10.6;;;;;;;;;;;;;
2019/11/24 12:42:50;;;;;;;11.9;10.6;;;;;;;;;;;;;
2019/11/24 12:45:15;;;;;;;11.4;10;;;;;;;;;;;;;
2019/11/24 12:47:40;;;;;;;11.5;10.3;;;;;;;;;;;;;
2019/11/24 12:50:05;;;;;;;10.7;9.6;;;;;;;;;;;;;
2019/11/24 12:52:30;;;;;;;10.8;9.7;;;;;;;;;;;;;
2019/11/24 12:54:55;;;;;;;10.5;9.4;;;;;;;;;;;;;
2019/11/24 12:57:21;;;;;;;10;8.6;;;;;;;;;;;;;
2019/11/24 12:59:46;;;;;;;10;9;;;;;;;;;;;;;
2019/11/24 13:02:11;;;;;;;10.2;9.1;;;;;;;;;;;;;
2019/11/24 13:04:36;;;;;;;9.6;8.6;;;;;;;;;;;;;
2019/11/24 13:07:01;;;;;;;11;8.8;;;;;;;;;;;;;
2019/11/24 13:09:26;;;;;;;10.7;8.9;;;;;;;;;;;;;
2019/11/24 13:11:52;;;;;;;9.4;8.5;;;;;;;;;;;;;
2019/11/24 13:14:16;;;;;;;9.7;7.7;;;;;;;;;;;;;
2019/11/24 13:16:42;;;;;;;10.4;7.6;;;;;;;;;;;;;
2019/11/24 13:19:07;;;;;;;8.7;7.9;;;;;;;;;;;;;
2019/11/24 13:21:32;;;;;;;7.8;7;;;;;;;;;;;;;
2019/11/24 13:23:57;;;;;;;9.7;8;;;;;;;;;;;;;
2019/11/24 13:26:22;;;;;;;8.7;7.9;;;;;;;;;;;;;
2019/11/24 13:28:47;;;;;;;8.7;7.8;;;;;;;;;;;;;
2019/11/24 13:31:12;;;;;;;9.2;8.2;;;;;;;;;;;;;
2019/11/24 13:33:37;;;;;;;10;8.9;;;;;;;;;;;;;
2019/11/24 13:36:02;;;;;;;9.1;8.2;;;;;;;;;;;;;
2019/11/24 13:38:27;;;;;;;8.6;7.5;;;;;;;;;;;;;
2019/11/24 13:40:53;;;;;;;8.7;7.8;;;;;;;;;;;;;
2019/11/24 13:43:18;;;;;;;8.7;7.8;;;;;;;;;;;;;
2019/11/24 13:45:43;;;;;;;9.9;8.9;;;;;;;;;;;;;
2019/11/24 13:48:08;;;;;;;9.1;7.6;;;;;;;;;;;;;
2019/11/24 13:50:33;;;;;;;9.4;7.9;;;;;;;;;;;;;
2019/11/24 13:52:58;;;;;;;9.7;7.9;;;;;;;;;;;;;
2019/11/24 13:55:23;;;;;;;9;8.1;;;;;;;;;;;;;
2019/11/24 13:57:48;;;;;;;9.8;7.7;;;;;;;;;;;;;
2019/11/24 14:00:13;;;;;;;8.3;7.5;;;;;;;;;;;;;
2019/11/24 14:02:38;;;;;;;8.2;7.4;;;;;;;;;;;;;
2019/11/24 14:05:03;;;;;;;8.2;7.3;;;;;;;;;;;;;
2019/11/24 14:07:28;;;;;;;8.7;7.7;;;;;;;;;;;;;
2019/11/24 14:09:53;;;;;;;8.2;6.9;;;;;;;;;;;;;
2019/11/24 14:12:19;;;;;;;8.8;7.1;;;;;;;;;;;;;
2019/11/24 14:14:44;;;;;;;9.5;8.2;;;;;;;;;;;;;
2019/11/24 14:17:09;;;;;;;11.7;9.3;;;;;;;;;;;;;
2019/11/24 14:19:34;;;;;;;13.9;11.4;;;;;;;;;;;;;
2019/11/24 14:21:59;;;;;;;14.6;11.8;;;;;;;;;;;;;
2019/11/24 14:24:24;;;;;;;9.2;8.2;;;;;;;;;;;;;
2019/11/24 14:26:49;;;;;;;10.1;9;;;;;;;;;;;;;
2019/11/24 14:29:14;;;;;;;9.6;8.4;;;;;;;;;;;;;
2019/11/24 14:31:40;;;;;;;11;8.7;;;;;;;;;;;;;
2019/11/24 14:34:05;;;;;;;9.8;8.7;;;;;;;;;;;;;
2019/11/24 14:36:30;;;;;;;9.7;8.7;;;;;;;;;;;;;
2019/11/24 14:38:55;;;;;;;10.5;8.3;;;;;;;;;;;;;
2019/11/24 14:41:20;;;;;;;9.2;8.3;;;;;;;;;;;;;
2019/11/24 14:43:45;;;;;;;9.1;7.7;;;;;;;;;;;;;
2019/11/24 14:46:10;;;;;;;8.9;7.3;;;;;;;;;;;;;
2019/11/24 14:48:35;;;;;;;9.7;7.9;;;;;;;;;;;;;
2019/11/24 14:51:00;;;;;;;8.1;7.3;;;;;;;;;;;;;
2019/11/24 14:53:25;;;;;;;8.5;7.6;;;;;;;;;;;;;
2019/11/24 14:55:50;;;;;;;8.6;7.4;;;;;;;;;;;;;
2019/11/24 14:58:15;;;;;;;8.5;7.6;;;;;;;;;;;;;
2019/11/24 15:00:40;;;;;;;8.6;7.7;;;;;;;;;;;;;
2019/11/24 15:03:06;;;;;;;7.8;7;;;;;;;;;;;;;
2019/11/24 15:05:31;;;;;;;9.5;7.6;;;;;;;;;;;;;
2019/11/24 15:07:56;;;;;;;8.4;7.3;;;;;;;;;;;;;
2019/11/24 15:10:21;;;;;;;9.1;7.3;;;;;;;;;;;;;
2019/11/24 15:12:46;;;;;;;8.7;7.6;;;;;;;;;;;;;
2019/11/24 15:15:11;;;;;;;8.5;7.6;;;;;;;;;;;;;
2019/11/24 15:17:37;;;;;;;8.2;7.4;;;;;;;;;;;;;
2019/11/24 15:20:02;;;;;;;9.4;7.2;;;;;;;;;;;;;
2019/11/24 15:22:27;;;;;;;8.6;7.7;;;;;;;;;;;;;
2019/11/24 15:24:52;;;;;;;8.6;7.5;;;;;;;;;;;;;
2019/11/24 15:27:17;;;;;;;8.9;7.4;;;;;;;;;;;;;
2019/11/24 15:29:42;;;;;;;8;7.1;;;;;;;;;;;;;
2019/11/24 15:32:07;;;;;;;8.3;7.4;;;;;;;;;;;;;
2019/11/24 15:34:32;;;;;;;8.6;7.4;;;;;;;;;;;;;
2019/11/24 15:36:59;;;;;;;10.9;9.6;;;;;;;;;;;;;
2019/11/24 15:39:22;;;;;;;10.6;9.6;;;;;;;;;;;;;
2019/11/24 15:41:48;;;;;;;13.1;11.8;;;;;;;;;;;;;
2019/11/24 15:44:13;;;;;;;16.3;14;;;;;;;;;;;;;
2019/11/24 15:46:38;;;;;;;15.9;14.2;;;;;;;;;;;;;
2019/11/24 15:49:03;;;;;;;18.7;15.6;;;;;;;;;;;;;
2019/11/24 15:51:28;;;;;;;17.2;14.9;;;;;;;;;;;;;
2019/11/24 15:53:53;;;;;;;17.4;14.2;;;;;;;;;;;;;
2019/11/24 15:56:18;;;;;;;16.8;13.9;;;;;;;;;;;;;
2019/11/24 15:58:43;;;;;;;16.8;14.4;;;;;;;;;;;;;
2019/11/24 16:01:08;;;;;;;15.7;14;;;;;;;;;;;;;
2019/11/24 16:03:33;;;;;;;19;14.9;;;;;;;;;;;;;
2019/11/24 16:05:59;;;;;;;18.2;13.6;;;;;;;;;;;;;
2019/11/24 16:08:24;;;;;;;15.6;13;;;;;;;;;;;;;
2019/11/24 16:10:49;;;;;;;17.5;13.1;;;;;;;;;;;;;
2019/11/24 16:13:14;;;;;;;17.6;13.8;;;;;;;;;;;;;
2019/11/24 16:15:39;;;;;;;16.7;13.6;;;;;;;;;;;;;
2019/11/24 16:18:04;;;;;;;17.9;13.8;;;;;;;;;;;;;
2019/11/24 16:20:29;;;;;;;18.1;15;;;;;;;;;;;;;
2019/11/24 16:22:55;;;;;;;16;12.9;;;;;;;;;;;;;
2019/11/24 16:25:20;;;;;;;15;12;;;;;;;;;;;;;
2019/11/24 16:27:45;;;;;;;13.1;11.6;;;;;;;;;;;;;
2019/11/24 16:30:10;;;;;;;15.9;11.6;;;;;;;;;;;;;
2019/11/24 16:32:35;;;;;;;12.8;11.1;;;;;;;;;;;;;
2019/11/24 16:35:00;;;;;;;13.7;11.3;;;;;;;;;;;;;
2019/11/24 16:37:25;;;;;;;12.2;10.6;;;;;;;;;;;;;
2019/11/24 16:39:50;;;;;;;13.4;10.9;;;;;;;;;;;;;
2019/11/24 16:42:15;;;;;;;13.1;11.8;;;;;;;;;;;;;
2019/11/24 16:44:40;;;;;;;13.7;12.2;;;;;;;;;;;;;
2019/11/24 16:47:05;;;;;;;14.3;11.9;;;;;;;;;;;;;
2019/11/24 16:49:31;;;;;;;15.4;12.6;;;;;;;;;;;;;
2019/11/24 16:51:56;;;;;;;13.9;12.4;;;;;;;;;;;;;
2019/11/24 16:54:21;;;;;;;13.7;12.1;;;;;;;;;;;;;
2019/11/24 16:56:46;;;;;;;17;13.5;;;;;;;;;;;;;
2019/11/24 16:59:11;;;;;;;16.3;13.1;;;;;;;;;;;;;
2019/11/24 17:01:36;;;;;;;14.7;13.1;;;;;;;;;;;;;
2019/11/24 17:04:01;;;;;;;16.1;13.9;;;;;;;;;;;;;
2019/11/24 17:06:26;;;;;;;16.8;14.4;;;;;;;;;;;;;
2019/11/24 17:08:51;;;;;;;17.6;14.3;;;;;;;;;;;;;
2019/11/24 17:11:16;;;;;;;17.5;14.8;;;;;;;;;;;;;
2019/11/24 17:13:42;;;;;;;17.2;14.9;;;;;;;;;;;;;
2019/11/24 17:16:07;;;;;;;17.1;14.5;;;;;;;;;;;;;
2019/11/24 17:18:32;;;;;;;17.9;15;;;;;;;;;;;;;
2019/11/24 17:20:57;;;;;;;15.2;13.6;;;;;;;;;;;;;
2019/11/24 17:23:22;;;;;;;16.8;15;;;;;;;;;;;;;
2019/11/24 17:25:47;;;;;;;15.9;14.2;;;;;;;;;;;;;
2019/11/24 17:28:12;;;;;;;17.6;14;;;;;;;;;;;;;
2019/11/24 17:30:37;;;;;;;16.7;14.9;;;;;;;;;;;;;
2019/11/24 17:33:02;;;;;;;17.8;14.7;;;;;;;;;;;;;
2019/11/24 17:35:27;;;;;;;16.1;14.3;;;;;;;;;;;;;
2019/11/24 17:37:52;;;;;;;16.8;15;;;;;;;;;;;;;
2019/11/24 17:40:17;;;;;;;18;15.2;;;;;;;;;;;;;
2019/11/24 17:42:42;;;;;;;18.4;15.1;;;;;;;;;;;;;
2019/11/24 17:45:08;;;;;;;18.1;14.6;;;;;;;;;;;;;
2019/11/24 17:47:33;;;;;;;16.8;14.9;;;;;;;;;;;;;
2019/11/24 17:49:58;;;;;;;17.6;14.5;;;;;;;;;;;;;
2019/11/24 17:52:23;;;;;;;15.4;13.8;;;;;;;;;;;;;
2019/11/24 17:54:48;;;;;;;17.3;14.4;;;;;;;;;;;;;
2019/11/24 17:57:13;;;;;;;16.7;14.9;;;;;;;;;;;;;
2019/11/24 17:59:38;;;;;;;18.7;16.1;;;;;;;;;;;;;
2019/11/24 18:02:03;;;;;;;24;17.8;;;;;;;;;;;;;
2019/11/24 18:04:28;;;;;;;22.2;17.7;;;;;;;;;;;;;